Time;durP1;ratioP1;P1;durP2;ratioP2;P2;SDS_P1;SDS_P2;PMS_P1;PMS_P2;Temp;Humidity;BMP_temperature;BMP_pressure;BME280_temperature;BME280_humidity;BME280_pressure;Samples;Min_cycle;Max_cycle;Signal;HPM_P1;HPM_P2
2022/04/25 00:01:09;;;;;;;31.13;15.23;;;;;;;;;;5071204;28;20072;-62
2022/04/25 00:03:35;;;;;;;34.67;16.13;;;;;;;;;;5074160;28;20399;-62
2022/04/25 00:06:01;;;;;;;34.67;15.40;;;;;;;;;;5070513;28;20040;-62
2022/04/25 00:08:27;;;;;;;26.10;15.47;;;;;;;;;;5070756;28;20043;-64
2022/04/25 00:10:53;;;;;;;29.67;16.63;;;;;;;;;;5070670;28;20120;-62
2022/04/25 00:13:19;;;;;;;34.83;15.73;;;;;;;;;;5070792;28;20056;-62
2022/04/25 00:15:45;;;;;;;30.33;14.40;;;;;;;;;;5070142;28;20135;-62
2022/04/25 00:18:11;;;;;;;24.07;15.03;;;;;;;;;;5075899;28;20506;-62
2022/04/25 00:20:37;;;;;;;32.30;15.10;;;;;;;;;;5069939;28;20049;-62
2022/04/25 00:23:06;;;;;;;28.63;15.93;;;;;;;;;;5069389;28;20052;-62
2022/04/25 00:25:33;;;;;;;29.50;15.40;;;;;;;;;;5068984;28;20124;-62
2022/04/25 00:28:00;;;;;;;25.57;14.50;;;;;;;;;;5069835;28;20044;-63
2022/04/25 00:30:26;;;;;;;31.03;15.30;;;;;;;;;;5070361;28;20040;-62
2022/04/25 00:32:52;;;;;;;27.97;14.83;;;;;;;;;;5068947;28;20520;-62
2022/04/25 00:35:18;;;;;;;29.03;14.90;;;;;;;;;;5070514;28;20647;-62
2022/04/25 00:37:44;;;;;;;31.03;15.53;;;;;;;;;;5070240;28;20048;-62
2022/04/25 00:40:11;;;;;;;29.43;15.70;;;;;;;;;;5069110;28;20125;-62
2022/04/25 00:42:37;;;;;;;29.43;14.87;;;;;;;;;;5069884;28;20128;-63
2022/04/25 00:45:03;;;;;;;27.93;13.90;;;;;;;;;;5068888;28;20124;-62
2022/04/25 00:47:30;;;;;;;24.03;14.07;;;;;;;;;;5068643;28;20040;-63
2022/04/25 00:49:56;;;;;;;28.77;14.70;;;;;;;;;;5069767;28;20514;-63
2022/04/25 00:52:22;;;;;;;29.97;15.77;;;;;;;;;;5068375;28;20044;-62
2022/04/25 00:54:48;;;;;;;22.70;13.57;;;;;;;;;;5068555;28;20036;-62
2022/04/25 00:57:14;;;;;;;25.77;14.37;;;;;;;;;;5068745;28;20051;-62
2022/04/25 00:59:41;;;;;;;25.77;14.43;;;;;;;;;;5069501;28;20410;-63
2022/04/25 01:02:08;;;;;;;26.47;13.87;;;;;;;;;;5068603;28;20047;-62
2022/04/25 01:04:34;;;;;;;20.77;12.80;;;;;;;;;;5069735;28;20090;-62
2022/04/25 01:07:00;;;;;;;31.13;15.80;;;;;;;;;;5069158;28;20093;-63
2022/04/25 01:09:26;;;;;;;36.37;18.30;;;;;;;;;;5059790;28;20045;-64
2022/04/25 01:11:52;;;;;;;42.60;18.13;;;;;;;;;;5069880;28;20037;-63
2022/04/25 01:14:20;;;;;;;44.50;21.00;;;;;;;;;;5070297;28;20052;-63
2022/04/25 01:16:47;;;;;;;41.53;22.10;;;;;;;;;;5067330;28;20048;-64
2022/04/25 01:19:13;;;;;;;43.33;22.03;;;;;;;;;;5068068;28;20052;-65
2022/04/25 01:21:44;;;;;;;57.03;22.47;;;;;;;;;;5068067;28;20040;-64
2022/04/25 01:29:40;;;;;;;42.73;22.23;;;;;;;;;;5069297;28;20041;-64
2022/04/25 01:32:06;;;;;;;56.43;25.17;;;;;;;;;;5067383;28;20056;-64
2022/04/25 01:34:33;;;;;;;54.73;25.30;;;;;;;;;;5068079;28;20060;-64
2022/04/25 01:37:01;;;;;;;50.77;23.73;;;;;;;;;;5066987;28;20056;-64
2022/04/25 01:39:27;;;;;;;45.60;22.27;;;;;;;;;;5067870;28;20548;-64
2022/04/25 01:41:54;;;;;;;59.40;24.50;;;;;;;;;;5069120;28;20478;-64
2022/04/25 01:44:19;;;;;;;51.03;24.33;;;;;;;;;;5067788;28;20071;-64
2022/04/25 01:46:45;;;;;;;54.27;25.20;;;;;;;;;;5069195;28;20067;-64
2022/04/25 01:49:11;;;;;;;64.50;27.53;;;;;;;;;;5067311;28;20576;-64
2022/04/25 01:51:39;;;;;;;58.63;26.00;;;;;;;;;;5068140;28;20051;-64
2022/04/25 01:54:05;;;;;;;47.83;24.47;;;;;;;;;;5067889;28;20065;-64
2022/04/25 01:56:32;;;;;;;74.17;29.57;;;;;;;;;;5066720;28;20044;-63
2022/04/25 01:58:58;;;;;;;51.53;24.83;;;;;;;;;;5068484;28;20036;-64
2022/04/25 02:01:24;;;;;;;61.27;28.47;;;;;;;;;;5065935;28;20123;-63
2022/04/25 02:03:50;;;;;;;52.67;26.70;;;;;;;;;;5063664;28;20119;-63
2022/04/25 02:06:16;;;;;;;67.57;26.67;;;;;;;;;;5067671;28;20033;-63
2022/04/25 02:08:43;;;;;;;55.40;26.33;;;;;;;;;;5068599;28;20037;-64
2022/04/25 02:11:25;;;;;;;55.23;26.43;;;;;;;;;;5067059;28;20044;-63
2022/04/25 02:13:54;;;;;;;57.20;25.73;;;;;;;;;;5062106;28;20503;-64
2022/04/25 02:16:20;;;;;;;64.00;28.73;;;;;;;;;;5065528;28;20078;-63
2022/04/25 02:18:46;;;;;;;64.20;29.73;;;;;;;;;;5066997;28;20040;-64
2022/04/25 02:21:13;;;;;;;64.43;28.30;;;;;;;;;;5066550;28;20037;-63
2022/04/25 02:23:39;;;;;;;61.07;30.17;;;;;;;;;;5062889;28;20037;-64
2022/04/25 02:26:05;;;;;;;53.13;28.67;;;;;;;;;;5066524;28;20055;-64
2022/04/25 02:28:31;;;;;;;53.73;28.90;;;;;;;;;;5074236;28;20058;-63
2022/04/25 02:30:58;;;;;;;78.17;30.80;;;;;;;;;;5068163;28;20040;-63
2022/04/25 02:33:24;;;;;;;67.70;30.97;;;;;;;;;;5067806;28;20097;-63
2022/04/25 02:35:50;;;;;;;51.47;26.10;;;;;;;;;;5067781;28;20044;-63
2022/04/25 02:38:16;;;;;;;48.97;27.37;;;;;;;;;;5067764;28;20538;-63
2022/04/25 02:40:42;;;;;;;67.47;30.57;;;;;;;;;;5066765;28;20080;-63
2022/04/25 02:43:08;;;;;;;54.63;27.87;;;;;;;;;;5075112;28;20115;-63
2022/04/25 02:45:35;;;;;;;54.97;26.33;;;;;;;;;;5074016;28;20406;-64
2022/04/25 02:48:02;;;;;;;59.53;27.13;;;;;;;;;;5075389;28;20554;-64
2022/04/25 02:50:28;;;;;;;53.27;26.43;;;;;;;;;;5074338;28;20119;-63
2022/04/25 02:52:54;;;;;;;58.27;27.47;;;;;;;;;;5074989;28;20040;-62
2022/04/25 02:55:21;;;;;;;49.67;26.47;;;;;;;;;;5077714;28;20105;-62
2022/04/25 02:57:47;;;;;;;57.07;26.73;;;;;;;;;;5073911;28;20064;-62
2022/04/25 03:00:13;;;;;;;60.20;28.97;;;;;;;;;;5077307;28;20118;-65
2022/04/25 03:02:39;;;;;;;58.30;28.47;;;;;;;;;;5078316;28;20036;-62
2022/04/25 03:05:06;;;;;;;58.47;27.47;;;;;;;;;;5077044;28;20036;-62
2022/04/25 03:07:32;;;;;;;53.23;25.33;;;;;;;;;;5078160;28;20044;-62
2022/04/25 03:09:58;;;;;;;50.57;25.57;;;;;;;;;;5076196;28;20548;-62
2022/04/25 03:12:25;;;;;;;54.33;25.80;;;;;;;;;;5073760;28;20054;-62
2022/04/25 03:14:51;;;;;;;46.30;23.33;;;;;;;;;;5073458;28;20127;-62
2022/04/25 03:17:17;;;;;;;49.53;25.70;;;;;;;;;;5072611;28;20820;-62
2022/04/25 03:19:44;;;;;;;43.63;24.07;;;;;;;;;;5073142;28;20044;-62
2022/04/25 03:22:10;;;;;;;41.43;22.43;;;;;;;;;;5073875;28;20044;-62
2022/04/25 03:24:36;;;;;;;52.17;24.73;;;;;;;;;;5076741;28;20131;-63
2022/04/25 03:27:02;;;;;;;41.63;19.37;;;;;;;;;;5077239;28;20037;-62
2022/04/25 03:29:29;;;;;;;42.87;22.73;;;;;;;;;;5074090;28;20044;-62
2022/04/25 03:31:54;;;;;;;34.07;18.40;;;;;;;;;;5078840;28;20036;-62
2022/04/25 03:34:20;;;;;;;43.30;23.47;;;;;;;;;;5079047;28;20414;-62
2022/04/25 03:36:51;;;;;;;42.43;20.33;;;;;;;;;;5080356;28;20047;-62
2022/04/25 03:39:17;;;;;;;48.07;23.47;;;;;;;;;;5080942;28;20079;-62
2022/04/25 03:41:43;;;;;;;35.57;20.87;;;;;;;;;;5078958;28;20099;-62
2022/04/25 03:44:10;;;;;;;39.10;21.20;;;;;;;;;;5073682;28;20041;-63
2022/04/25 03:46:35;;;;;;;39.37;20.60;;;;;;;;;;5079376;28;20495;-62
2022/04/25 03:49:01;;;;;;;38.83;19.50;;;;;;;;;;5074982;28;20074;-62
2022/04/25 03:51:29;;;;;;;37.53;19.30;;;;;;;;;;5067373;28;20067;-62
2022/04/25 03:53:55;;;;;;;37.23;18.80;;;;;;;;;;5079737;28;20075;-62
2022/04/25 03:59:06;;;;;;;43.10;22.37;;;;;;;;;;5076977;28;20044;-62
2022/04/25 04:01:35;;;;;;;35.10;17.93;;;;;;;;;;5075068;28;20571;-62
2022/04/25 04:04:04;;;;;;;38.33;19.70;;;;;;;;;;5076570;28;20461;-62
2022/04/25 04:06:31;;;;;;;36.93;19.90;;;;;;;;;;5075794;28;20049;-62
2022/04/25 04:08:57;;;;;;;39.30;21.77;;;;;;;;;;5078210;28;20144;-62
2022/04/25 04:11:23;;;;;;;34.20;20.07;;;;;;;;;;5077579;28;20167;-62
2022/04/25 04:13:49;;;;;;;37.10;20.23;;;;;;;;;;5076589;28;20040;-62
2022/04/25 04:16:15;;;;;;;38.00;20.10;;;;;;;;;;5081742;28;20036;-62
2022/04/25 04:18:42;;;;;;;40.33;21.13;;;;;;;;;;5081219;28;20059;-62
2022/04/25 04:21:09;;;;;;;47.17;20.63;;;;;;;;;;5083638;28;20093;-62
2022/04/25 04:23:36;;;;;;;33.57;17.77;;;;;;;;;;5074827;28;20075;-63
2022/04/25 04:26:02;;;;;;;34.23;18.73;;;;;;;;;;5072058;28;20044;-62
2022/04/25 04:28:28;;;;;;;27.60;18.30;;;;;;;;;;5076541;28;20036;-62
2022/04/25 04:30:54;;;;;;;31.20;18.40;;;;;;;;;;5077541;28;20051;-62
2022/04/25 04:33:20;;;;;;;39.17;20.50;;;;;;;;;;5078731;28;20032;-62
2022/04/25 04:38:30;;;;;;;30.33;17.87;;;;;;;;;;5076681;28;20063;-62
2022/04/25 04:40:56;;;;;;;34.43;19.00;;;;;;;;;;5078568;28;20063;-62
2022/04/25 04:43:22;;;;;;;35.37;18.53;;;;;;;;;;5077873;28;20044;-63
2022/04/25 04:45:48;;;;;;;36.77;18.73;;;;;;;;;;5073167;28;20115;-62
2022/04/25 04:48:15;;;;;;;32.77;17.60;;;;;;;;;;5073727;28;20406;-62
2022/04/25 04:50:41;;;;;;;34.07;17.30;;;;;;;;;;5073560;28;20040;-62
2022/04/25 04:53:07;;;;;;;28.30;17.17;;;;;;;;;;5070889;28;20040;-62
2022/04/25 04:55:36;;;;;;;36.97;18.00;;;;;;;;;;5083480;28;20084;-62
2022/04/25 04:58:02;;;;;;;26.00;17.00;;;;;;;;;;5080499;28;20083;-62
2022/04/25 05:00:29;;;;;;;30.57;16.17;;;;;;;;;;5081654;28;20044;-62
2022/04/25 05:02:56;;;;;;;27.87;16.50;;;;;;;;;;5069798;28;20128;-62
2022/04/25 05:05:22;;;;;;;33.13;18.67;;;;;;;;;;5067058;28;20051;-63
2022/04/25 05:07:48;;;;;;;33.43;18.00;;;;;;;;;;5069648;28;20043;-64
2022/04/25 05:10:15;;;;;;;26.47;16.53;;;;;;;;;;5076027;28;20788;-64
2022/04/25 05:12:49;;;;;;;26.90;18.13;;;;;;;;;;5076724;28;20073;-64
2022/04/25 05:15:15;;;;;;;31.40;16.03;;;;;;;;;;5075506;28;20087;-63
2022/04/25 05:17:42;;;;;;;29.33;16.33;;;;;;;;;;5068445;28;20067;-64
2022/04/25 05:20:09;;;;;;;29.40;15.10;;;;;;;;;;5068517;28;20045;-64
2022/04/25 05:22:38;;;;;;;29.03;16.47;;;;;;;;;;5068410;28;20040;-64
2022/04/25 05:25:04;;;;;;;25.27;14.93;;;;;;;;;;5067777;28;20056;-64
2022/04/25 05:27:32;;;;;;;22.80;15.50;;;;;;;;;;5065185;28;20037;-63
2022/04/25 05:29:57;;;;;;;25.73;14.80;;;;;;;;;;5060772;28;20041;-63
2022/04/25 05:32:23;;;;;;;27.20;17.50;;;;;;;;;;5062622;28;20047;-63
2022/04/25 05:34:49;;;;;;;30.20;14.97;;;;;;;;;;5063413;28;20127;-63
2022/04/25 05:37:15;;;;;;;27.33;16.17;;;;;;;;;;5065163;28;20048;-63
2022/04/25 05:39:41;;;;;;;25.97;14.90;;;;;;;;;;5059554;28;20033;-63
2022/04/25 05:42:08;;;;;;;28.00;14.70;;;;;;;;;;5062973;28;20047;-64
2022/04/25 05:44:34;;;;;;;29.27;14.20;;;;;;;;;;5062304;28;20074;-64
2022/04/25 05:47:00;;;;;;;22.20;14.37;;;;;;;;;;5064875;28;20388;-64
2022/04/25 05:52:11;;;;;;;29.87;16.37;;;;;;;;;;5064777;28;20143;-63
2022/04/25 05:54:37;;;;;;;21.57;13.27;;;;;;;;;;5063958;28;20105;-64
2022/04/25 05:57:03;;;;;;;24.60;14.20;;;;;;;;;;5062542;28;20063;-64
2022/04/25 05:59:29;;;;;;;22.43;13.73;;;;;;;;;;5064864;28;20063;-64
2022/04/25 06:01:56;;;;;;;19.13;13.10;;;;;;;;;;5061826;28;20048;-63
2022/04/25 06:04:22;;;;;;;20.13;13.33;;;;;;;;;;5064484;28;20052;-63
2022/04/25 06:06:48;;;;;;;23.63;14.33;;;;;;;;;;5061384;28;20059;-63
2022/04/25 06:09:16;;;;;;;26.57;14.33;;;;;;;;;;5064744;28;20083;-63
2022/04/25 06:11:43;;;;;;;25.90;14.20;;;;;;;;;;5062186;28;20048;-63
2022/04/25 06:14:09;;;;;;;24.40;12.20;;;;;;;;;;5065276;28;20051;-64
2022/04/25 06:16:35;;;;;;;24.43;14.27;;;;;;;;;;5062977;28;20072;-63
2022/04/25 06:19:02;;;;;;;25.60;14.53;;;;;;;;;;5064802;28;20097;-64
2022/04/25 06:21:28;;;;;;;24.70;15.17;;;;;;;;;;5062873;28;20411;-63
2022/04/25 06:23:54;;;;;;;22.33;14.23;;;;;;;;;;5063343;28;20067;-64
2022/04/25 06:26:20;;;;;;;24.23;12.23;;;;;;;;;;5062374;28;20086;-64
2022/04/25 06:28:46;;;;;;;21.63;12.37;;;;;;;;;;5062916;28;20076;-64
2022/04/25 06:31:12;;;;;;;19.27;12.57;;;;;;;;;;5066896;28;20465;-64
2022/04/25 06:33:39;;;;;;;20.37;12.07;;;;;;;;;;5066278;28;20131;-64
2022/04/25 06:36:05;;;;;;;29.53;14.20;;;;;;;;;;5067475;28;20041;-63
2022/04/25 06:38:32;;;;;;;19.23;12.93;;;;;;;;;;5067382;28;20052;-63
2022/04/25 06:40:58;;;;;;;24.27;13.70;;;;;;;;;;5066084;28;20040;-63
2022/04/25 06:43:24;;;;;;;21.23;13.67;;;;;;;;;;5065139;28;20044;-63
2022/04/25 06:45:50;;;;;;;19.53;12.83;;;;;;;;;;5067782;28;20449;-64
2022/04/25 06:48:16;;;;;;;20.40;12.90;;;;;;;;;;5065065;28;20045;-64
2022/04/25 06:50:42;;;;;;;24.83;12.33;;;;;;;;;;5066236;28;20049;-64
2022/04/25 06:53:08;;;;;;;23.63;12.43;;;;;;;;;;5063310;28;20056;-64
2022/04/25 06:55:34;;;;;;;21.17;12.90;;;;;;;;;;5062194;28;20044;-64
2022/04/25 06:58:00;;;;;;;20.70;12.50;;;;;;;;;;5066211;28;20552;-64
2022/04/25 07:00:27;;;;;;;21.57;14.23;;;;;;;;;;5065279;28;20060;-64
2022/04/25 07:02:54;;;;;;;18.60;11.97;;;;;;;;;;5067320;28;20052;-64
2022/04/25 07:05:21;;;;;;;23.47;14.73;;;;;;;;;;5067529;28;20056;-64
2022/04/25 07:07:47;;;;;;;22.53;14.73;;;;;;;;;;5070119;28;20053;-64
2022/04/25 07:10:13;;;;;;;22.73;14.70;;;;;;;;;;5072077;28;20048;-64
2022/04/25 07:12:39;;;;;;;23.73;13.33;;;;;;;;;;5069247;28;20047;-64
2022/04/25 07:15:05;;;;;;;21.93;14.27;;;;;;;;;;5070306;28;20155;-64
2022/04/25 07:17:31;;;;;;;22.23;14.30;;;;;;;;;;5071079;28;20502;-63
2022/04/25 07:19:57;;;;;;;27.63;15.57;;;;;;;;;;5069723;28;20423;-64
2022/04/25 07:30:38;;;;;;;24.67;14.47;;;;;;;;;;5069287;28;20106;-64
2022/04/25 07:33:04;;;;;;;21.83;13.33;;;;;;;;;;5071897;28;20051;-64
2022/04/25 07:35:30;;;;;;;23.47;13.97;;;;;;;;;;5071032;28;20045;-64
2022/04/25 07:37:56;;;;;;;19.93;13.20;;;;;;;;;;5070822;28;20054;-64
2022/04/25 07:40:23;;;;;;;20.30;14.33;;;;;;;;;;5071361;28;20126;-64
2022/04/25 07:42:49;;;;;;;21.63;13.40;;;;;;;;;;5072140;28;20089;-64
2022/04/25 07:45:15;;;;;;;24.03;14.07;;;;;;;;;;5071100;28;20036;-64
2022/04/25 07:47:43;;;;;;;20.57;13.13;;;;;;;;;;5069818;28;20178;-64
2022/04/25 07:50:12;;;;;;;20.80;14.30;;;;;;;;;;5071252;28;20052;-64
2022/04/25 07:52:38;;;;;;;22.90;15.40;;;;;;;;;;5070619;28;20041;-64
2022/04/25 07:55:05;;;;;;;22.00;14.97;;;;;;;;;;5070605;28;20044;-64
2022/04/25 07:57:31;;;;;;;21.60;14.23;;;;;;;;;;5067952;28;20040;-64
2022/04/25 07:59:57;;;;;;;22.83;13.87;;;;;;;;;;5070081;28;20055;-64
2022/04/25 08:02:23;;;;;;;24.10;15.73;;;;;;;;;;5059474;28;20056;-64
2022/04/25 08:04:49;;;;;;;28.30;16.87;;;;;;;;;;5070478;28;20075;-64
2022/04/25 08:07:15;;;;;;;25.07;15.20;;;;;;;;;;5071262;28;20047;-64
2022/04/25 08:09:41;;;;;;;21.40;15.47;;;;;;;;;;5068668;28;20609;-64
2022/04/25 08:20:22;;;;;;;44.10;21.03;;;;;;;;;;5070058;28;20044;-62
2022/04/25 08:22:49;;;;;;;45.07;22.13;;;;;;;;;;5071166;28;20494;-62
2022/04/25 08:25:16;;;;;;;46.97;22.13;;;;;;;;;;5074369;28;20048;-62
2022/04/25 08:27:42;;;;;;;39.43;21.23;;;;;;;;;;5070805;28;20109;-62
2022/04/25 08:30:08;;;;;;;33.30;18.47;;;;;;;;;;5070640;28;20048;-62
2022/04/25 08:32:34;;;;;;;36.10;18.60;;;;;;;;;;5070523;28;20040;-62
2022/04/25 08:35:01;;;;;;;28.20;16.13;;;;;;;;;;5070327;28;20093;-62
2022/04/25 08:37:27;;;;;;;28.07;16.00;;;;;;;;;;5070117;28;20048;-62
2022/04/25 08:39:53;;;;;;;30.77;18.27;;;;;;;;;;5070296;28;20533;-62
2022/04/25 08:42:21;;;;;;;29.27;17.03;;;;;;;;;;5070145;28;20751;-62
2022/04/25 08:44:50;;;;;;;29.40;15.90;;;;;;;;;;5070101;28;20113;-62
2022/04/25 08:47:16;;;;;;;28.80;17.03;;;;;;;;;;5069878;28;20513;-62
2022/04/25 08:49:43;;;;;;;28.47;15.90;;;;;;;;;;5069345;28;20055;-62
2022/04/25 08:52:10;;;;;;;35.03;20.03;;;;;;;;;;5070290;28;20056;-64
2022/04/25 08:54:36;;;;;;;26.23;17.73;;;;;;;;;;5069918;28;20057;-62
2022/04/25 08:57:05;;;;;;;29.33;16.03;;;;;;;;;;5069958;28;20086;-62
2022/04/25 08:59:32;;;;;;;28.00;17.57;;;;;;;;;;5070292;28;20041;-62
2022/04/25 09:01:58;;;;;;;32.30;18.90;;;;;;;;;;5070121;28;20044;-62
2022/04/25 09:04:24;;;;;;;28.60;16.63;;;;;;;;;;5070209;28;20040;-62
2022/04/25 09:06:51;;;;;;;31.30;17.37;;;;;;;;;;5070268;28;20040;-62
2022/04/25 09:09:17;;;;;;;28.13;17.40;;;;;;;;;;5069573;28;20055;-62
2022/04/25 09:14:28;;;;;;;31.87;17.90;;;;;;;;;;5069724;28;20049;-62
2022/04/25 09:16:54;;;;;;;39.13;19.40;;;;;;;;;;5069565;28;20125;-61
2022/04/25 09:19:20;;;;;;;31.70;19.07;;;;;;;;;;5069722;28;20048;-62
2022/04/25 09:21:46;;;;;;;45.00;21.57;;;;;;;;;;5069988;28;21135;-62
2022/04/25 09:24:22;;;;;;;39.57;22.80;;;;;;;;;;5069176;28;20044;-62
2022/04/25 09:26:50;;;;;;;37.33;18.87;;;;;;;;;;5069493;28;20049;-62
2022/04/25 09:29:24;;;;;;;29.97;19.03;;;;;;;;;;5068499;28;20072;-62
2022/04/25 09:31:50;;;;;;;38.63;20.43;;;;;;;;;;5069392;28;20056;-62
2022/04/25 09:34:59;;;;;;;27.57;17.33;;;;;;;;;;5069485;28;20040;-62
2022/04/25 09:37:05;;;;;;;33.97;19.43;;;;;;;;;;5068695;28;20051;-63
2022/04/25 09:39:31;;;;;;;37.70;22.17;;;;;;;;;;5069217;28;20049;-62
2022/04/25 09:41:57;;;;;;;46.30;22.70;;;;;;;;;;5069298;28;20056;-63
2022/04/25 09:44:24;;;;;;;45.23;23.77;;;;;;;;;;5069579;28;20048;-62
2022/04/25 09:46:50;;;;;;;38.53;22.90;;;;;;;;;;5069561;28;20070;-62
2022/04/25 09:49:20;;;;;;;34.73;19.37;;;;;;;;;;5068649;28;20036;-62
2022/04/25 09:51:59;;;;;;;35.67;20.30;;;;;;;;;;5067999;28;20071;-62
2022/04/25 09:54:25;;;;;;;35.17;20.50;;;;;;;;;;5069001;28;20044;-62
2022/04/25 09:56:51;;;;;;;38.67;21.07;;;;;;;;;;5069013;28;20045;-62
2022/04/25 09:59:21;;;;;;;37.13;21.63;;;;;;;;;;5069021;28;20044;-62
2022/04/25 10:02:00;;;;;;;34.70;20.40;;;;;;;;;;5068566;28;20048;-62
2022/04/25 10:04:34;;;;;;;33.87;19.43;;;;;;;;;;5069013;28;20115;-62
2022/04/25 10:07:00;;;;;;;;;;;;;;;;;;5069323;28;20044;-62
2022/04/25 10:09:29;;;;;;;34.20;20.23;;;;;;;;;;5068911;28;20004;-62
2022/04/25 10:11:57;;;;;;;30.10;16.43;;;;;;;;;;5069030;28;20045;-62
2022/04/25 10:14:25;;;;;;;30.43;18.17;;;;;;;;;;5068453;28;20170;-62
2022/04/25 10:16:51;;;;;;;26.30;17.37;;;;;;;;;;5068759;28;20075;-62
2022/04/25 10:19:18;;;;;;;24.13;15.77;;;;;;;;;;5068000;28;20063;-62
2022/04/25 10:21:44;;;;;;;20.97;15.37;;;;;;;;;;5068924;28;20041;-62
2022/04/25 10:24:11;;;;;;;16.63;13.20;;;;;;;;;;5068765;28;20037;-62
2022/04/25 10:26:37;;;;;;;20.13;14.60;;;;;;;;;;5068551;28;20080;-62
2022/04/25 10:29:08;;;;;;;19.77;12.63;;;;;;;;;;5068444;28;20484;-62
2022/04/25 10:31:41;;;;;;;20.87;14.27;;;;;;;;;;5068512;28;20044;-62
2022/04/25 10:34:07;;;;;;;18.98;13.55;;;;;;;;;;5068823;28;20135;-62
2022/04/25 10:36:39;;;;;;;18.87;12.90;;;;;;;;;;5071735;28;20510;-62
2022/04/25 10:39:23;;;;;;;21.73;11.97;;;;;;;;;;5069606;28;20137;-62
2022/04/25 10:44:43;;;;;;;21.63;14.10;;;;;;;;;;5067258;28;20506;-62
2022/04/25 10:47:09;;;;;;;19.67;10.80;;;;;;;;;;5068090;28;20091;-62
2022/04/25 10:49:36;;;;;;;15.17;10.43;;;;;;;;;;5068339;28;20045;-62
2022/04/25 10:52:08;;;;;;;15.67;10.53;;;;;;;;;;5067389;28;20533;-62
2022/04/25 10:55:06;;;;;;;16.20;11.90;;;;;;;;;;5066900;28;20052;-62
2022/04/25 10:57:32;;;;;;;13.77;9.77;;;;;;;;;;5055299;28;20127;-61
2022/04/25 10:59:58;;;;;;;14.50;11.17;;;;;;;;;;5066431;28;20737;-62
2022/04/25 11:02:28;;;;;;;11.13;9.83;;;;;;;;;;5068145;28;20102;-62
2022/04/25 11:05:14;;;;;;;16.33;10.20;;;;;;;;;;5068029;28;20178;-62
2022/04/25 11:07:41;;;;;;;16.60;11.53;;;;;;;;;;5066964;28;20123;-62
2022/04/25 11:10:09;;;;;;;23.27;13.47;;;;;;;;;;5067772;28;20048;-63
2022/04/25 11:13:04;;;;;;;14.83;9.90;;;;;;;;;;5067131;28;20525;-62
2022/04/25 11:15:39;;;;;;;16.40;11.43;;;;;;;;;;5059420;28;20114;-62
2022/04/25 11:18:33;;;;;;;15.07;9.77;;;;;;;;;;5067945;28;20046;-62
2022/04/25 11:21:07;;;;;;;20.48;13.27;;;;;;;;;;5066807;28;20186;-62
2022/04/25 11:23:34;;;;;;;16.47;9.70;;;;;;;;;;5067335;28;20406;-62
2022/04/25 11:26:00;;;;;;;17.33;11.27;;;;;;;;;;5067360;28;20076;-62
2022/04/25 11:28:26;;;;;;;14.83;10.60;;;;;;;;;;5065919;28;20498;-62
2022/04/25 11:31:12;;;;;;;14.37;9.13;;;;;;;;;;5067322;28;20127;-62
2022/04/25 11:33:43;;;;;;;13.33;9.67;;;;;;;;;;5056553;28;20057;-62
2022/04/25 11:36:11;;;;;;;10.30;7.37;;;;;;;;;;5067387;28;20044;-62
2022/04/25 11:41:23;;;;;;;10.17;6.80;;;;;;;;;;5066329;28;20127;-62
2022/04/25 11:43:49;;;;;;;10.63;7.27;;;;;;;;;;5066853;28;20044;-63
2022/04/25 11:46:15;;;;;;;9.23;6.73;;;;;;;;;;5066610;28;20049;-62
2022/04/25 11:48:42;;;;;;;9.60;6.57;;;;;;;;;;5066417;28;20101;-62
2022/04/25 11:51:08;;;;;;;7.97;6.53;;;;;;;;;;5066702;28;20036;-62
2022/04/25 11:53:34;;;;;;;10.63;5.80;;;;;;;;;;5068779;28;20049;-62
2022/04/25 11:56:13;;;;;;;7.83;5.13;;;;;;;;;;5071217;28;20581;-62
2022/04/25 11:58:39;;;;;;;10.63;6.37;;;;;;;;;;5051143;28;20080;-62
2022/04/25 12:01:05;;;;;;;10.17;5.93;;;;;;;;;;5066552;28;20056;-62
2022/04/25 12:03:31;;;;;;;8.80;5.93;;;;;;;;;;5070428;28;20045;-62
2022/04/25 12:06:15;;;;;;;8.67;6.40;;;;;;;;;;5069304;28;20051;-62
2022/04/25 12:17:02;;;;;;;9.60;5.10;;;;;;;;;;5051220;28;20045;-62
2022/04/25 12:19:28;;;;;;;7.25;5.13;;;;;;;;;;5061183;28;20120;-62
2022/04/25 12:22:03;;;;;;;10.47;5.03;;;;;;;;;;5070848;28;20440;-62
2022/04/25 12:24:29;;;;;;;10.27;5.43;;;;;;;;;;5051129;28;20049;-62
2022/04/25 12:27:14;;;;;;;9.20;5.47;;;;;;;;;;5451463;22;22965;-63
2022/04/25 12:30:03;;;;;;;8.43;4.77;;;;;;;;;;5050610;23;20048;-61
2022/04/25 12:32:29;;;;;;;7.93;5.20;;;;;;;;;;5068565;28;20853;-63
2022/04/25 12:34:55;;;;;;;8.23;5.50;;;;;;;;;;5069995;28;20048;-62
2022/04/25 12:37:21;;;;;;;9.40;6.20;;;;;;;;;;5057878;28;20131;-62
2022/04/25 12:40:01;;;;;;;8.47;5.10;;;;;;;;;;5060596;28;20049;-63
2022/04/25 12:42:43;;;;;;;7.50;4.90;;;;;;;;;;5058557;28;20131;-63
2022/04/25 12:45:09;;;;;;;6.95;4.65;;;;;;;;;;5058002;28;20727;-63
2022/04/25 12:47:35;;;;;;;6.23;4.73;;;;;;;;;;5062000;28;20048;-63
2022/04/25 12:50:03;;;;;;;6.83;5.20;;;;;;;;;;5061390;28;20047;-63
2022/04/25 12:52:45;;;;;;;6.73;4.73;;;;;;;;;;5060022;28;20057;-62
2022/04/25 12:55:11;;;;;;;5.93;5.23;;;;;;;;;;5058496;28;20055;-62
2022/04/25 12:57:37;;;;;;;9.40;5.03;;;;;;;;;;5055383;28;20049;-62
2022/04/25 13:00:04;;;;;;;8.73;5.67;;;;;;;;;;5061261;28;20524;-62
2022/04/25 13:02:35;;;;;;;7.87;5.23;;;;;;;;;;5070544;28;20044;-62
2022/04/25 13:05:03;;;;;;;7.83;5.27;;;;;;;;;;5049906;28;20045;-64
2022/04/25 13:07:29;;;;;;;8.47;5.90;;;;;;;;;;5066329;28;20139;-62
2022/04/25 13:09:56;;;;;;;8.20;6.50;;;;;;;;;;5068606;28;20044;-63
2022/04/25 13:12:24;;;;;;;10.13;6.17;;;;;;;;;;5057500;28;20041;-62
2022/04/25 13:14:50;;;;;;;9.63;6.03;;;;;;;;;;5061616;28;20052;-63
2022/04/25 13:17:16;;;;;;;7.67;5.97;;;;;;;;;;5062302;28;20518;-63
2022/04/25 13:19:43;;;;;;;9.47;6.80;;;;;;;;;;5052232;28;20037;-63
2022/04/25 13:22:09;;;;;;;10.27;5.77;;;;;;;;;;5060844;28;20112;-62
2022/04/25 13:24:35;;;;;;;10.50;6.53;;;;;;;;;;5063099;28;20098;-62
2022/04/25 13:27:02;;;;;;;12.27;6.80;;;;;;;;;;5059517;28;20115;-62
2022/04/25 13:29:28;;;;;;;11.00;6.90;;;;;;;;;;5062109;28;20421;-63
2022/04/25 13:31:54;;;;;;;10.87;6.97;;;;;;;;;;5060541;28;20099;-62
2022/04/25 13:34:20;;;;;;;8.90;7.50;;;;;;;;;;5058498;28;20066;-62
2022/04/25 13:36:46;;;;;;;9.23;6.93;;;;;;;;;;5059714;28;20092;-62
2022/04/25 13:39:12;;;;;;;10.40;7.20;;;;;;;;;;5057955;28;20037;-62
2022/04/25 13:41:38;;;;;;;9.80;7.27;;;;;;;;;;5055476;28;20056;-62
2022/04/25 13:44:05;;;;;;;12.20;7.87;;;;;;;;;;5055230;28;20131;-63
2022/04/25 13:46:33;;;;;;;12.33;8.00;;;;;;;;;;5060593;28;20083;-62
2022/04/25 13:48:59;;;;;;;13.97;8.07;;;;;;;;;;5057864;28;20439;-62
2022/04/25 13:51:26;;;;;;;12.93;8.40;;;;;;;;;;5059429;28;20045;-62
2022/04/25 13:53:52;;;;;;;13.03;7.63;;;;;;;;;;5049097;28;20041;-62
2022/04/25 13:56:19;;;;;;;11.37;7.40;;;;;;;;;;5077534;28;20137;-62
2022/04/25 13:58:45;;;;;;;13.63;8.03;;;;;;;;;;5066000;28;20045;-62
2022/04/25 14:01:11;;;;;;;14.57;8.17;;;;;;;;;;5068194;28;20471;-63
2022/04/25 14:03:37;;;;;;;14.97;7.23;;;;;;;;;;5054770;28;20072;-62
2022/04/25 14:06:04;;;;;;;14.47;8.20;;;;;;;;;;5061102;28;20048;-62
2022/04/25 14:08:30;;;;;;;11.13;8.93;;;;;;;;;;5056852;28;20049;-62
2022/04/25 14:10:56;;;;;;;10.10;8.10;;;;;;;;;;5059842;28;20037;-62
2022/04/25 14:13:25;;;;;;;13.57;9.10;;;;;;;;;;5059408;28;20032;-63
2022/04/25 14:15:52;;;;;;;11.07;8.63;;;;;;;;;;5058248;28;20079;-63
2022/04/25 14:18:18;;;;;;;13.23;8.97;;;;;;;;;;5058867;28;20052;-63
2022/04/25 14:20:44;;;;;;;10.50;8.40;;;;;;;;;;5060832;28;20044;-63
2022/04/25 14:23:11;;;;;;;14.83;8.73;;;;;;;;;;5052287;28;20076;-62
2022/04/25 14:25:38;;;;;;;15.80;9.17;;;;;;;;;;5060667;28;20087;-63
2022/04/25 14:28:04;;;;;;;11.57;8.37;;;;;;;;;;5055680;28;20134;-63
2022/04/25 14:30:31;;;;;;;10.57;8.90;;;;;;;;;;5057715;28;20049;-62
2022/04/25 14:32:57;;;;;;;14.93;9.73;;;;;;;;;;5059136;28;20079;-63
2022/04/25 14:35:23;;;;;;;11.10;8.80;;;;;;;;;;5055729;28;20687;-63
2022/04/25 14:37:50;;;;;;;13.57;8.83;;;;;;;;;;5057089;28;20740;-63
2022/04/25 14:40:16;;;;;;;10.63;8.87;;;;;;;;;;5058743;28;20041;-62
2022/04/25 14:42:42;;;;;;;12.33;9.27;;;;;;;;;;5060056;28;20052;-62
2022/04/25 14:45:09;;;;;;;15.50;10.33;;;;;;;;;;5060105;28;20041;-63
2022/04/25 14:47:35;;;;;;;16.17;10.17;;;;;;;;;;5059951;28;20048;-63
2022/04/25 14:55:31;;;;;;;15.90;9.93;;;;;;;;;;5056557;28;20049;-62
2022/04/25 14:57:57;;;;;;;14.73;9.80;;;;;;;;;;5072701;28;20043;-62
2022/04/25 15:00:24;;;;;;;12.83;9.23;;;;;;;;;;5086578;28;20044;-63
2022/04/25 15:02:51;;;;;;;14.57;9.93;;;;;;;;;;5047811;28;20044;-63
2022/04/25 15:05:17;;;;;;;13.13;9.73;;;;;;;;;;5063027;28;20490;-63
2022/04/25 15:07:44;;;;;;;15.60;9.33;;;;;;;;;;5056086;28;20048;-62
2022/04/25 15:10:10;;;;;;;14.00;10.13;;;;;;;;;;5056816;28;20051;-62
2022/04/25 15:12:36;;;;;;;13.13;9.43;;;;;;;;;;5067184;28;20635;-63
2022/04/25 15:15:03;;;;;;;11.83;9.43;;;;;;;;;;5053639;28;20474;-62